Kezdőlap
METAR-TAF:

METAR-TAF

Repülőterek :

Ammán, Jordánia

földrajzi szélesség: 31-59N, földrajzi hosszúság: 035-59E, magasság: 767 m

Jelenlegi meteorológiai megfigyelések

A jelentés 11 perccel ezelõtt készült, 16:00 UTC
Nyugat-északnyugati szél 10 kt
Hőmérséklet 30°C
Páratartalom 24%
Légköri nyomás 1010 hPa
Látótávolság: 6000 m

METAR: OJAM 181600Z 29010KT 6000 NSC 30/07 Q1010 NOSIG

Idő: 19:11 (16:11 UTC)

Előrejelzés

A jelentés 5 órával és 11 perccel ezelõtt készült, 11:00 UTC
Az előrejelzés 18-én 12 óra UTC és 19-én 18 óra UTC között érvényes
Nyugati szél 10 kt
Látótávolság: 5000 m
Száraz légköri homály
19-én 00 óra UTC és 19-én 06 óra UTC között ideiglenes
Különbözõ irányokból fújó szél 2 kt

TAF: OJAM 181100Z 1812/1918 28010KT 5000 HZ NSC TEMPO 1900/1906 VRB02KT

Meteorológiai megfigyelések és előrejelzések több, mint 4000 repülőtéren (METAR és TAF jelentéseket).

A térképen piros és sárga pontok jelzik az elérhető meteorológiai állomásokat.

Mozgassa az egeret a pont fölött, hogy megjelenjen az állomás neve.

Azután kattintson az időjárási megfigyelések és előrejelzések megtekintéséhez.

A térkép megváltoztatása: kattintson a fekete keresztel jelölt zöld gombra ráközelítéshez, a vonallal jelölt zöld gombra távolításhoz, vagy a zöld nyilakra a szomszédos térképek eléréséhez.


METAR-TAF: